Time;durP1;ratioP1;P1;durP2;ratioP2;P2;SDS_P1;SDS_P2;PMS_P1;PMS_P2;Temp;Humidity;BMP_temperature;BMP_pressure;BME280_temperature;BME280_humidity;BME280_pressure;Samples;Min_cycle;Max_cycle;Signal;HPM_P1;HPM_P2
2022/10/06 00:01:11;;;;;;;4.43;4.03;;;;;;;8.28;97.92;98545.34;6088485;29;20481;-78
2022/10/06 00:04:13;;;;;;;5.53;4.23;;;;;;;8.22;98.60;98543.03;6087849;29;20244;-79
2022/10/06 00:07:15;;;;;;;5.00;4.37;;;;;;;8.15;97.62;98547.81;6090116;29;20605;-79
2022/10/06 00:10:18;;;;;;;4.83;4.37;;;;;;;8.12;97.89;98562.91;6088071;29;20228;-78
2022/10/06 00:13:20;;;;;;;4.50;4.07;;;;;;;8.09;98.61;98557.81;6088842;29;20224;-78
2022/10/06 00:16:22;;;;;;;5.43;4.90;;;;;;;8.03;98.52;98572.16;6090463;29;20244;-79
2022/10/06 00:19:24;;;;;;;5.30;4.80;;;;;;;8.06;99.62;98579.88;6086755;29;20235;-79
2022/10/06 00:22:35;;;;;;;4.97;4.20;;;;;;;8.07;99.51;98571.06;6089889;29;20235;-79
2022/10/06 00:25:37;;;;;;;7.67;4.93;;;;;;;8.12;99.99;98581.31;6088093;29;20710;-80
2022/10/06 00:28:39;;;;;;;5.67;4.23;;;;;;;8.08;99.21;98567.50;6085412;29;20252;-78
2022/10/06 00:31:42;;;;;;;4.33;3.93;;;;;;;8.09;99.45;98581.47;6070441;29;20237;-79
2022/10/06 00:34:44;;;;;;;6.33;4.13;;;;;;;8.12;99.67;98587.41;6079713;29;20612;-80
2022/10/06 00:37:47;;;;;;;4.83;4.30;;;;;;;8.10;100.00;98588.44;6086558;29;20231;-79
2022/10/06 00:40:50;;;;;;;5.13;3.70;;;;;;;8.01;99.97;98597.66;6083739;29;20704;-79
2022/10/06 00:43:55;;;;;;;4.13;3.83;;;;;;;7.99;100.00;98599.53;6079818;29;20743;-79
2022/10/06 00:46:57;;;;;;;6.60;3.83;;;;;;;7.99;100.00;98599.53;6080502;29;20232;-79
2022/10/06 00:50:01;;;;;;;4.10;3.70;;;;;;;7.98;99.98;98600.50;6064054;29;20233;-79
2022/10/06 00:53:04;;;;;;;7.40;3.80;;;;;;;7.94;99.95;98596.31;6066188;29;20232;-80
2022/10/06 00:56:07;;;;;;;5.17;4.13;;;;;;;7.84;99.82;98597.75;6065426;29;20236;-79
2022/10/06 00:59:15;;;;;;;4.00;3.60;;;;;;;7.75;99.66;98587.75;6064179;29;20240;-79
2022/10/06 01:02:36;;;;;;;6.87;3.93;;;;;;;7.71;99.60;98591.47;6072196;29;20260;-79
2022/10/06 01:05:45;;;;;;;5.43;3.50;;;;;;;7.69;100.00;98599.44;6056664;29;20717;-79
2022/10/06 01:08:48;;;;;;;4.10;3.60;;;;;;;7.64;99.87;98598.00;6078008;29;20229;-79
2022/10/06 01:11:53;;;;;;;3.33;3.03;;;;;;;7.61;99.53;98600.78;6064067;29;20235;-79
2022/10/06 01:14:56;;;;;;;4.83;3.30;;;;;;;7.60;99.77;98596.44;6080850;29;20249;-79
2022/10/06 01:18:12;;;;;;;4.73;3.20;;;;;;;7.57;99.32;98602.72;6063907;29;20723;-79
2022/10/06 01:21:28;;;;;;;4.60;3.60;;;;;;;7.54;99.92;98597.63;6078482;29;20689;-79
2022/10/06 01:24:31;;;;;;;4.30;3.47;;;;;;;7.55;99.41;98591.47;6066454;29;20791;-80
2022/10/06 01:27:36;;;;;;;3.77;3.40;;;;;;;7.55;99.66;98598.47;6069327;29;20799;-79
2022/10/06 01:30:49;;;;;;;3.90;3.13;;;;;;;7.49;99.58;98593.53;6065797;29;20237;-80
2022/10/06 01:33:53;;;;;;;3.93;3.03;;;;;;;7.44;99.24;98596.44;6078641;29;20697;-79
2022/10/06 01:36:56;;;;;;;5.97;3.17;;;;;;;7.41;99.46;98599.19;6078470;29;20236;-79
2022/10/06 01:40:00;;;;;;;4.63;3.20;;;;;;;7.37;99.53;98595.91;6072249;29;20233;-79
2022/10/06 01:43:02;;;;;;;5.03;3.00;;;;;;;7.34;99.32;98598.69;6086266;29;20742;-79
2022/10/06 01:46:05;;;;;;;3.40;2.87;;;;;;;7.32;99.23;98594.44;6087165;29;20736;-79
2022/10/06 01:49:07;;;;;;;2.53;2.33;;;;;;;7.30;99.88;98602.41;6086623;29;20253;-79
2022/10/06 01:52:09;;;;;;;3.10;2.80;;;;;;;7.30;99.61;98604.16;6085220;29;20258;-79
2022/10/06 01:55:11;;;;;;;3.53;3.00;;;;;;;7.31;99.43;98598.84;6085826;29;20232;-79
2022/10/06 01:58:14;;;;;;;2.33;2.13;;;;;;;7.25;99.21;98607.06;6086371;29;20293;-79
2022/10/06 02:01:16;;;;;;;2.57;2.37;;;;;;;7.23;99.51;98608.06;6088629;29;20274;-78
2022/10/06 02:04:18;;;;;;;3.10;2.60;;;;;;;7.21;99.46;98613.38;6087272;29;20259;-79
2022/10/06 02:07:21;;;;;;;2.73;2.53;;;;;;;7.21;99.26;98608.13;6086303;29;20257;-79
2022/10/06 02:10:23;;;;;;;4.07;3.10;;;;;;;7.21;99.45;98608.13;6086033;29;20831;-79
2022/10/06 02:13:26;;;;;;;7.10;3.23;;;;;;;7.20;99.65;98601.19;6085816;29;20734;-78
2022/10/06 02:16:29;;;;;;;6.57;3.70;;;;;;;7.19;99.46;98609.13;6086622;29;20239;-78
2022/10/06 02:19:32;;;;;;;8.67;4.00;;;;;;;7.22;99.72;98601.94;6087684;29;20931;-79
2022/10/06 02:22:39;;;;;;;6.47;3.53;;;;;;;7.21;99.61;98607.28;6070758;29;20231;-80
2022/10/06 02:25:41;;;;;;;5.50;4.17;;;;;;;7.21;99.58;98599.41;6087767;29;20240;-80
2022/10/06 02:28:45;;;;;;;3.80;3.23;;;;;;;7.17;99.28;98601.34;6082162;29;20308;-79
2022/10/06 02:31:53;;;;;;;5.03;3.63;;;;;;;7.15;99.30;98605.81;6076799;29;20705;-79
2022/10/06 02:34:56;;;;;;;5.97;3.80;;;;;;;7.11;100.00;98604.28;6085051;29;20242;-80
2022/10/06 02:37:58;;;;;;;3.50;3.20;;;;;;;7.07;99.50;98597.50;6084059;29;20318;-79
2022/10/06 02:41:00;;;;;;;5.57;3.47;;;;;;;7.04;99.75;98598.50;6070801;29;20239;-79
2022/10/06 02:44:04;;;;;;;3.97;3.57;;;;;;;7.02;99.52;98587.22;6085047;29;20602;-79
2022/10/06 02:47:13;;;;;;;3.90;3.40;;;;;;;7.00;99.84;98601.34;6085077;29;20748;-79
2022/10/06 02:50:15;;;;;;;3.80;3.20;;;;;;;6.97;99.95;98591.88;6066026;29;20235;-79
2022/10/06 02:53:18;;;;;;;3.30;3.00;;;;;;;6.94;99.84;98597.28;6062219;29;20613;-79
2022/10/06 02:56:23;;;;;;;6.67;3.57;;;;;;;6.94;99.92;98604.31;6075677;29;20608;-80
2022/10/06 02:59:26;;;;;;;4.33;3.07;;;;;;;6.93;100.00;98611.31;6085091;29;20585;-79
2022/10/06 03:02:30;;;;;;;7.27;3.57;;;;;;;6.93;100.00;98608.69;6084736;29;20238;-79
2022/10/06 03:05:32;;;;;;;3.93;3.40;;;;;;;6.94;100.00;98612.19;6085161;29;20250;-80
2022/10/06 03:08:34;;;;;;;4.27;3.50;;;;;;;6.94;100.00;98618.28;6085287;29;20570;-79
2022/10/06 03:11:39;;;;;;;3.47;3.10;;;;;;;6.95;100.00;98621.75;6084471;29;20238;-80
2022/10/06 03:14:43;;;;;;;4.07;3.23;;;;;;;6.95;100.00;98621.75;6087370;29;20239;-79
2022/10/06 03:17:48;;;;;;;4.27;3.83;;;;;;;6.98;100.00;98624.22;6084284;29;20267;-79
2022/10/06 03:20:52;;;;;;;3.60;3.30;;;;;;;6.97;100.00;98638.28;6084330;29;20322;-79
2022/10/06 03:23:56;;;;;;;3.73;3.33;;;;;;;6.95;100.00;98629.63;6084002;29;20374;-79
2022/10/06 03:26:59;;;;;;;5.27;3.60;;;;;;;6.92;100.00;98624.50;6092396;29;20230;-81
2022/10/06 03:30:03;;;;;;;4.23;3.30;;;;;;;6.91;100.00;98631.53;6055665;29;20273;-78
2022/10/06 03:33:08;;;;;;;4.47;3.70;;;;;;;6.89;100.00;98624.66;6067523;29;20215;-80
2022/10/06 03:36:16;;;;;;;4.90;3.80;;;;;;;6.91;100.00;98638.56;6083963;29;20224;-79
2022/10/06 03:39:18;;;;;;;4.50;2.90;;;;;;;6.90;100.00;98629.84;6074804;29;20255;-80
2022/10/06 03:42:20;;;;;;;5.17;4.13;;;;;;;6.88;100.00;98629.09;6068606;29;20231;-79
2022/10/06 03:45:22;;;;;;;4.80;3.70;;;;;;;6.90;100.00;98631.59;6084767;29;20234;-79
2022/10/06 03:48:25;;;;;;;4.73;3.73;;;;;;;6.90;100.00;98636.84;6083872;29;20227;-79
2022/10/06 03:51:36;;;;;;;5.00;3.53;;;;;;;6.88;100.00;98642.22;6083165;29;20253;-79
2022/10/06 03:54:39;;;;;;;4.40;3.20;;;;;;;6.86;100.00;98641.44;6083537;29;20638;-79
2022/10/06 03:57:41;;;;;;;6.33;3.73;;;;;;;6.86;100.00;98645.81;6084171;29;20665;-79
2022/10/06 04:00:45;;;;;;;3.90;3.40;;;;;;;6.81;100.00;98643.41;6085148;29;20244;-79
2022/10/06 04:03:47;;;;;;;5.20;3.63;;;;;;;6.78;100.00;98648.00;6068600;29;20237;-79
2022/10/06 04:06:49;;;;;;;4.60;3.37;;;;;;;6.76;100.00;98658.56;6084627;29;20235;-79
2022/10/06 04:09:53;;;;;;;3.37;3.07;;;;;;;6.75;100.00;98656.00;6084694;29;20235;-79
2022/10/06 04:12:56;;;;;;;3.83;3.23;;;;;;;6.76;100.00;98655.06;6084130;29;20243;-80
2022/10/06 04:16:07;;;;;;;5.67;3.70;;;;;;;6.77;100.00;98662.03;6083381;29;20238;-79
2022/10/06 04:19:11;;;;;;;4.43;3.70;;;;;;;6.75;100.00;98661.25;6084433;29;20234;-79
2022/10/06 04:22:18;;;;;;;4.63;3.27;;;;;;;6.74;100.00;98668.25;6067873;29;20236;-79
2022/10/06 04:25:20;;;;;;;5.37;3.50;;;;;;;6.73;100.00;98668.34;6083127;29;20232;-79
2022/10/06 04:28:22;;;;;;;4.17;3.63;;;;;;;6.74;100.00;98672.66;6081129;29;20243;-78
2022/10/06 04:31:28;;;;;;;6.17;3.70;;;;;;;6.72;100.00;98675.34;6064672;29;20232;-80
2022/10/06 04:34:30;;;;;;;5.73;3.50;;;;;;;6.71;100.00;98678.03;6085015;29;20278;-79
2022/10/06 04:37:32;;;;;;;5.00;3.97;;;;;;;6.72;100.00;98679.75;6084819;29;20259;-79
2022/10/06 04:40:35;;;;;;;4.13;3.73;;;;;;;6.70;100.00;98676.34;6068297;29;20751;-79
2022/10/06 04:43:37;;;;;;;4.10;3.63;;;;;;;6.75;100.00;98685.72;6083203;29;20231;-80
2022/10/06 04:46:40;;;;;;;4.53;2.97;;;;;;;6.81;100.00;98681.91;6069539;29;20238;-79
2022/10/06 04:49:45;;;;;;;4.47;2.93;;;;;;;6.88;100.00;98691.22;6088632;29;20242;-79
2022/10/06 04:52:48;;;;;;;4.90;3.00;;;;;;;6.96;100.00;98691.69;6088475;29;20241;-79
2022/10/06 04:55:59;;;;;;;3.00;2.73;;;;;;;7.13;100.00;98696.94;6088393;29;20626;-79
2022/10/06 04:59:03;;;;;;;5.27;2.97;;;;;;;7.31;100.00;98701.25;6083733;29;20246;-80
2022/10/06 05:02:09;;;;;;;5.03;2.70;;;;;;;7.45;100.00;98694.44;6088608;29;20318;-79
2022/10/06 05:05:12;;;;;;;2.27;2.07;;;;;;;7.62;100.00;98697.91;6086885;29;20230;-79
2022/10/06 05:08:15;;;;;;;5.37;2.80;;;;;;;7.82;100.00;98699.47;6071873;29;20232;-78
2022/10/06 05:11:18;;;;;;;3.03;2.53;;;;;;;7.95;100.00;98700.53;6087695;29;20243;-79
2022/10/06 05:14:27;;;;;;;3.70;2.60;;;;;;;8.12;100.00;98705.72;6086910;29;20239;-79
2022/10/06 05:17:30;;;;;;;2.60;2.40;;;;;;;8.29;100.00;98701.31;6087794;29;20259;-80
2022/10/06 05:20:32;;;;;;;4.77;2.77;;;;;;;8.45;100.00;98718.00;6086313;29;20246;-80
2022/10/06 05:23:38;;;;;;;3.40;2.43;;;;;;;8.58;100.00;98713.78;6087870;29;20573;-80
2022/10/06 05:26:40;;;;;;;2.70;2.50;;;;;;;8.72;100.00;98715.63;6087974;29;20235;-80
2022/10/06 05:29:46;;;;;;;2.80;2.43;;;;;;;8.85;100.00;98722.75;6076389;29;20239;-80
2022/10/06 05:32:49;;;;;;;3.10;1.90;;;;;;;8.95;100.00;98730.97;6085989;29;20243;-78
2022/10/06 05:35:57;;;;;;;3.20;1.90;;;;;;;8.99;100.00;98736.88;6074922;29;20235;-77
2022/10/06 05:39:00;;;;;;;2.47;1.93;;;;;;;9.09;100.00;98746.81;6071472;29;20605;-80
2022/10/06 05:42:09;;;;;;;2.77;2.00;;;;;;;9.39;100.00;98752.09;6061831;29;20577;-80
2022/10/06 05:45:12;;;;;;;2.83;2.00;;;;;;;9.47;100.00;98759.56;6077433;29;20233;-80
2022/10/06 05:48:14;;;;;;;3.20;2.07;;;;;;;9.66;100.00;98759.34;6078090;29;20724;-79
2022/10/06 05:51:18;;;;;;;2.87;2.03;;;;;;;9.88;100.00;98757.94;6077871;29;20217;-79
2022/10/06 05:54:21;;;;;;;2.60;1.90;;;;;;;10.17;100.00;98763.25;6083854;29;21245;-79
2022/10/06 05:57:23;;;;;;;2.67;1.57;;;;;;;10.23;100.00;98763.75;6069402;29;20242;-79
2022/10/06 06:00:25;;;;;;;2.20;1.40;;;;;;;10.24;100.00;98764.59;6086797;29;20244;-79
2022/10/06 06:03:28;;;;;;;1.63;1.50;;;;;;;10.28;100.00;98771.41;6087005;29;20240;-79
2022/10/06 06:06:45;;;;;;;3.50;1.50;;;;;;;10.26;100.00;98771.50;6085254;29;20710;-79
2022/10/06 06:10:05;;;;;;;3.20;1.40;;;;;;;10.23;100.00;98779.56;6085461;29;20233;-80
2022/10/06 06:13:07;;;;;;;2.70;2.00;;;;;;;10.25;100.00;98787.41;6085068;29;20321;-80
2022/10/06 06:16:17;;;;;;;2.47;1.83;;;;;;;10.46;100.00;98786.09;6084575;29;20344;-79
2022/10/06 06:19:19;;;;;;;4.13;1.43;;;;;;;10.60;100.00;98799.25;6084866;29;20250;-79
2022/10/06 06:22:21;;;;;;;3.17;1.73;;;;;;;10.63;100.00;98791.16;6084904;29;20244;-79
2022/10/06 06:25:25;;;;;;;2.60;1.73;;;;;;;11.07;100.00;98796.25;6085519;29;20231;-79
2022/10/06 06:28:28;;;;;;;5.53;1.80;;;;;;;11.41;98.13;98794.88;6083885;29;20641;-79
2022/10/06 06:31:35;;;;;;;3.70;1.60;;;;;;;11.82;94.30;98801.91;6085944;29;20235;-79
2022/10/06 06:34:39;;;;;;;1.17;1.10;;;;;;;12.49;88.03;98800.75;6085493;29;20247;-81
2022/10/06 06:37:44;;;;;;;2.27;1.70;;;;;;;12.55;88.78;98818.88;6086684;29;20246;-81
2022/10/06 06:40:47;;;;;;;2.03;1.07;;;;;;;12.49;88.49;98821.06;6083429;29;20703;-80
2022/10/06 06:43:51;;;;;;;1.63;1.03;;;;;;;12.37;90.15;98812.22;6083934;29;20427;-81
2022/10/06 06:47:05;;;;;;;2.20;1.73;;;;;;;12.14;91.14;98823.53;6085069;29;20231;-80
2022/10/06 06:50:09;;;;;;;3.00;1.57;;;;;;;12.23;90.56;98825.53;6085003;29;20246;-80
2022/10/06 06:53:13;;;;;;;2.33;1.37;;;;;;;12.66;87.68;98822.56;6084989;29;20231;-79
2022/10/06 06:56:22;;;;;;;1.60;1.50;;;;;;;12.97;83.34;98829.19;6084651;29;20242;-79
2022/10/06 06:59:25;;;;;;;2.80;1.30;;;;;;;13.33;80.28;98809.78;6083808;29;20261;-79
2022/10/06 07:02:30;;;;;;;1.40;1.10;;;;;;;-144.22;100.00;60274.75;6084549;29;20286;-79
2022/10/06 07:05:33;;;;;;;1.97;1.40;;;;;;;-144.22;100.00;60274.75;6061076;29;20232;-80
2022/10/06 07:08:38;;;;;;;3.83;1.40;;;;;;;-144.22;100.00;60274.75;6072857;29;20232;-81
2022/10/06 07:11:40;;;;;;;2.23;1.40;;;;;;;-144.22;100.00;60274.75;6070081;29;20236;-80
2022/10/06 07:25:06;;;;;;;1.50;1.10;;;;;;;-144.22;100.00;60274.75;6084892;29;20268;-80
2022/10/06 07:28:11;;;;;;;2.30;1.10;;;;;;;-144.22;100.00;60274.75;6080008;29;20590;-80
2022/10/06 07:31:17;;;;;;;1.23;1.10;;;;;;;-144.22;100.00;60274.75;6062544;29;20232;-80
2022/10/06 07:34:21;;;;;;;2.87;1.10;;;;;;;-144.22;100.00;60274.75;6069225;29;20281;-79
2022/10/06 07:37:24;;;;;;;1.47;1.23;;;;;;;-144.22;100.00;60274.75;6084326;29;20247;-80
2022/10/06 07:40:26;;;;;;;1.80;1.07;;;;;;;-144.22;100.00;60274.75;6066256;29;20297;-80
2022/10/06 07:43:29;;;;;;;1.70;1.20;;;;;;;-144.22;100.00;60274.75;6084523;29;20595;-79
2022/10/06 07:46:34;;;;;;;1.33;0.90;;;;;;;-144.22;100.00;60274.75;6052929;29;20235;-78
2022/10/06 07:49:41;;;;;;;4.10;1.23;;;;;;;-144.22;100.00;60274.75;6083560;29;20239;-78
2022/10/06 07:52:46;;;;;;;1.53;1.30;;;;;;;-144.22;100.00;60274.75;6083225;29;20386;-78
2022/10/06 07:55:48;;;;;;;2.20;1.43;;;;;;;-144.22;100.00;60274.75;6082265;29;20240;-78
2022/10/06 07:58:57;;;;;;;1.33;1.00;;;;;;;-144.22;100.00;60274.75;6081909;29;20241;-78
2022/10/06 08:01:59;;;;;;;0.93;0.80;;;;;;;-144.22;100.00;60274.75;6083367;29;20307;-78
2022/10/06 08:05:01;;;;;;;1.77;1.17;;;;;;;-144.22;100.00;60274.75;6083355;29;20231;-78
2022/10/06 08:08:04;;;;;;;3.10;1.07;;;;;;;-144.22;100.00;60274.75;6067820;29;20715;-78
2022/10/06 08:11:07;;;;;;;1.93;1.57;;;;;;;-144.22;100.00;60274.75;6084000;29;20699;-78
2022/10/06 08:14:09;;;;;;;1.10;1.00;;;;;;;-144.22;100.00;60274.75;6083854;29;20227;-79
2022/10/06 08:17:11;;;;;;;2.57;0.87;;;;;;;-144.22;100.00;60274.75;6083457;29;20585;-79
2022/10/06 08:20:13;;;;;;;3.57;1.03;;;;;;;-144.22;100.00;60274.75;6083710;29;20718;-79
2022/10/06 08:23:15;;;;;;;4.20;1.17;;;;;;;-144.22;100.00;60274.75;6088083;29;20607;-79
2022/10/06 08:26:19;;;;;;;2.37;1.00;;;;;;;-144.22;100.00;60274.75;6092339;29;20231;-79
2022/10/06 08:29:21;;;;;;;2.60;1.00;;;;;;;-144.22;100.00;60274.75;6079206;29;20226;-79
2022/10/06 08:32:24;;;;;;;1.43;1.03;;;;;;;-144.22;100.00;60274.75;6089430;29;20315;-79
2022/10/06 08:35:26;;;;;;;1.20;1.10;;;;;;;-144.22;100.00;60274.75;6086805;29;20243;-77
2022/10/06 08:38:28;;;;;;;3.57;1.10;;;;;;;-144.22;100.00;60274.75;6090523;29;20265;-76
2022/10/06 08:41:43;;;;;;;1.37;1.00;;;;;;;-144.22;100.00;60274.75;6071808;29;20235;-76
2022/10/06 08:44:49;;;;;;;2.83;1.10;;;;;;;-144.22;100.00;60274.75;6087065;29;20240;-77
2022/10/06 08:48:02;;;;;;;1.67;1.20;;;;;;;-144.22;100.00;60274.75;6088823;29;20243;-76
2022/10/06 08:51:18;;;;;;;2.53;1.00;;;;;;;-144.22;100.00;60274.75;6087823;29;20236;-75
2022/10/06 08:54:33;;;;;;;1.27;0.93;;;;;;;-144.22;100.00;60274.75;6087704;29;20232;-75
2022/10/06 08:57:55;;;;;;;3.77;1.20;;;;;;;-144.22;100.00;60274.75;6087146;29;20629;-78
2022/10/06 09:01:13;;;;;;;2.40;1.23;;;;;;;13.46;100.00;60274.75;6074629;29;20785;-76
2022/10/06 09:04:33;;;;;;;2.63;1.30;;;;;;;-144.22;100.00;60274.75;6088745;29;20248;-79
2022/10/06 09:07:41;;;;;;;4.03;1.27;;;;;;;-144.22;100.00;60274.75;6087147;29;20244;-78
2022/10/06 09:11:09;;;;;;;5.07;1.43;;;;;;;20.82;100.00;60274.75;6086793;29;20290;-79
2022/10/06 09:14:16;;;;;;;3.43;1.30;;;;;;;-144.22;100.00;60274.75;6087826;29;20719;-79
2022/10/06 09:17:37;;;;;;;1.67;1.23;;;;;;;21.61;100.00;60274.75;6086465;29;20224;-78
2022/10/06 09:20:50;;;;;;;3.07;0.90;;;;;;;-144.22;100.00;60274.75;6086818;29;20239;-79
2022/10/06 09:23:55;;;;;;;1.37;1.27;;;;;;;-144.22;100.00;60274.75;6087480;29;20240;-77
2022/10/06 09:26:57;;;;;;;3.70;2.27;;;;;;;22.04;100.00;60274.75;6089223;29;20274;-78
2022/10/06 09:30:00;;;;;;;1.60;1.50;;;;;;;-144.22;100.00;60274.75;6076573;29;20263;-78
2022/10/06 09:33:05;;;;;;;2.87;1.27;;;;;;;-144.22;100.00;60274.75;6085322;29;20238;-77
2022/10/06 09:36:09;;;;;;;4.73;3.77;;;;;;;-144.22;100.00;60274.75;6054978;29;20211;-78
2022/10/06 09:39:25;;;;;;;4.23;2.37;;;;;;;-144.22;100.00;60274.75;6086959;29;20236;-78
2022/10/06 09:42:34;;;;;;;3.47;2.47;;;;;;;104.84;100.00;60274.75;6077866;29;20935;-78
2022/10/06 09:45:36;;;;;;;12.20;8.53;;;;;;;-144.22;100.00;60274.75;6070582;29;20243;-79
2022/10/06 09:48:38;;;;;;;13.17;7.73;;;;;;;-144.22;100.00;60274.75;6086191;29;20243;-78
2022/10/06 09:51:40;;;;;;;5.53;3.20;;;;;;;-144.22;100.00;60274.75;6087828;29;20228;-78
2022/10/06 09:54:43;;;;;;;8.03;4.13;;;;;;;-144.22;100.00;60274.75;6086992;29;20232;-79
2022/10/06 09:57:51;;;;;;;4.03;1.80;;;;;;;-144.22;100.00;60274.75;6084959;29;20738;-79
2022/10/06 10:00:56;;;;;;;4.90;1.40;;;;;;;-144.22;100.00;60274.75;6077068;29;20236;-79
2022/10/06 10:04:06;;;;;;;1.40;1.30;;;;;;;-144.22;100.00;60274.75;6076927;29;20243;-79
2022/10/06 10:07:26;;;;;;;4.50;2.27;;;;;;;-144.22;100.00;60274.75;6081459;29;20228;-78
2022/10/06 10:10:28;;;;;;;6.53;3.93;;;;;;;63.28;100.00;60274.75;6084652;29;20283;-79
2022/10/06 10:13:41;;;;;;;3.57;1.50;;;;;;;-144.22;100.00;60274.75;6086861;29;20262;-78
2022/10/06 10:16:44;;;;;;;3.43;2.60;;;;;;;-144.22;100.00;60274.75;6077564;29;20229;-79
2022/10/06 10:19:54;;;;;;;2.93;1.93;;;;;;;-144.22;100.00;60274.75;6070797;29;20235;-79
2022/10/06 10:23:04;;;;;;;1.77;1.47;;;;;;;-144.22;100.00;60274.75;6086692;29;20228;-79
2022/10/06 10:26:28;;;;;;;4.90;2.50;;;;;;;-144.22;100.00;60274.75;6080732;29;20236;-78
2022/10/06 10:29:53;;;;;;;2.87;1.10;;;;;;;-144.22;100.00;60274.75;6078010;29;20270;-79
2022/10/06 10:33:10;;;;;;;1.83;1.40;;;;;;;-144.22;100.00;60274.75;6085713;29;20791;-78
2022/10/06 10:36:16;;;;;;;2.03;1.50;;;;;;;-144.22;100.00;60274.75;6085648;29;20228;-79
2022/10/06 10:39:25;;;;;;;2.28;1.13;;;;;;;-144.22;100.00;60274.75;6085900;29;20262;-78
2022/10/06 10:42:36;;;;;;;3.22;1.23;;;;;;;25.64;100.00;60274.75;6077814;29;20715;-79
2022/10/06 10:45:55;;;;;;;2.90;1.20;;;;;;;-144.22;100.00;60274.75;6069078;29;20255;-77
2022/10/06 10:49:02;;;;;;;2.58;1.20;;;;;;;104.84;100.00;60274.75;6085889;29;20252;-79
2022/10/06 10:52:23;;;;;;;2.15;1.05;;;;;;;-144.22;100.00;60274.75;6086586;29;20660;-79
2022/10/06 10:55:40;;;;;;;2.38;1.35;;;;;;;-144.22;100.00;60274.75;6084127;29;20236;-77
2022/10/06 10:58:44;;;;;;;1.60;1.02;;;;;;;-144.22;100.00;60274.75;6088511;29;20319;-77
2022/10/06 11:01:56;;;;;;;4.45;1.52;;;;;;;-144.22;100.00;60274.75;6085722;29;20255;-77
2022/10/06 11:05:26;;;;;;;5.07;1.25;;;;;;;-144.22;100.00;60274.75;6085661;29;20232;-77
2022/10/06 11:08:54;;;;;;;5.82;1.40;;;;;;;-144.22;100.00;60274.75;6061449;29;20263;-77
2022/10/06 11:12:15;;;;;;;2.55;1.10;;;;;;;-144.22;100.00;60274.75;6083994;29;20371;-76
2022/10/06 11:15:44;;;;;;;2.97;1.20;;;;;;;104.84;100.00;60274.75;6086744;29;20236;-77
2022/10/06 11:19:04;;;;;;;6.55;1.20;;;;;;;-144.22;100.00;60274.75;6067921;29;20239;-77
2022/10/06 11:22:25;;;;;;;1.33;1.20;;;;;;;-144.22;100.00;60274.75;6086003;29;20233;-76
2022/10/06 11:25:51;;;;;;;2.15;1.15;;;;;;;-144.22;100.00;60274.75;6083412;29;20269;-77
2022/10/06 11:29:12;;;;;;;5.13;1.48;;;;;;;-144.22;100.00;60274.75;6079462;29;20250;-77
2022/10/06 11:32:29;;;;;;;2.10;1.23;;;;;;;-144.22;100.00;60274.75;6084156;29;20236;-77
2022/10/06 11:35:35;;;;;;;2.13;1.40;;;;;;;-144.22;100.00;60274.75;6083144;29;20708;-77
2022/10/06 11:38:44;;;;;;;5.78;1.40;;;;;;;104.84;100.00;60274.75;6084492;29;20244;-77
2022/10/06 11:42:09;;;;;;;4.20;1.48;;;;;;;-144.22;100.00;60274.75;6085531;29;20239;-77
2022/10/06 11:45:15;;;;;;;2.22;1.30;;;;;;;26.32;100.00;60274.75;6084622;29;20708;-77
2022/10/06 11:48:22;;;;;;;3.33;1.27;;;;;;;-144.22;100.00;60274.75;6084383;29;20223;-77
2022/10/06 11:51:25;;;;;;;5.15;1.33;;;;;;;-144.22;100.00;60274.75;6084929;29;20228;-77
2022/10/06 11:54:50;;;;;;;3.15;1.65;;;;;;;104.84;100.00;60274.75;6084617;29;20232;-76
2022/10/06 11:58:09;;;;;;;1.88;1.40;;;;;;;-144.22;100.00;60274.75;6082646;29;20250;-77
2022/10/06 12:01:32;;;;;;;3.35;1.40;;;;;;;-144.22;100.00;60274.75;6083411;29;20327;-77
2022/10/06 12:04:34;;;;;;;1.70;1.40;;;;;;;-144.22;100.00;60274.75;6085020;29;20265;-76
2022/10/06 12:07:54;;;;;;;3.17;1.30;;;;;;;-144.22;100.00;60274.75;6083096;29;20599;-76
2022/10/06 12:10:56;;;;;;;4.05;1.30;;;;;;;-144.22;100.00;60274.75;6083672;29;20247;-77
2022/10/06 12:13:59;;;;;;;3.63;1.27;;;;;;;-144.22;100.00;60274.75;6082685;29;20243;-77
2022/10/06 12:17:35;;;;;;;2.08;1.42;;;;;;;-144.22;100.00;60274.75;6084566;29;20228;-77
2022/10/06 12:20:58;;;;;;;3.40;1.23;;;;;;;-144.22;100.00;60274.75;6083388;29;20235;-77
2022/10/06 12:24:15;;;;;;;2.95;1.40;;;;;;;-144.22;100.00;60274.75;6082262;29;20247;-77
2022/10/06 12:27:29;;;;;;;1.70;1.27;;;;;;;-144.22;100.00;60274.75;6083853;29;20636;-77
2022/10/06 12:30:42;;;;;;;3.33;1.42;;;;;;;-144.22;100.00;60274.75;6055557;29;20710;-77
2022/10/06 12:33:45;;;;;;;2.42;1.10;;;;;;;-144.22;100.00;60274.75;6085439;29;20619;-77
2022/10/06 12:36:47;;;;;;;8.65;1.25;;;;;;;25.64;100.00;60274.75;6093502;29;20232;-77
2022/10/06 12:39:49;;;;;;;4.97;1.38;;;;;;;-144.22;100.00;60274.75;6083378;29;20251;-77
2022/10/06 12:42:53;;;;;;;4.72;1.33;;;;;;;-144.22;100.00;60274.75;6075735;29;20747;-77
2022/10/06 12:45:55;;;;;;;4.97;1.35;;;;;;;104.84;100.00;60274.75;6074528;29;20239;-77
2022/10/06 12:49:25;;;;;;;3.70;1.30;;;;;;;-144.22;100.00;60274.75;6075291;29;20244;-77
2022/10/06 12:52:33;;;;;;;3.00;1.27;;;;;;;28.23;100.00;60274.75;6075603;29;20248;-78
2022/10/06 12:55:52;;;;;;;2.95;1.17;;;;;;;-144.22;100.00;60274.75;6082201;29;20692;-77
2022/10/06 12:58:55;;;;;;;3.33;1.40;;;;;;;-144.22;100.00;60274.75;6084433;29;20236;-77
2022/10/06 13:02:06;;;;;;;4.47;1.40;;;;;;;-144.22;100.00;60274.75;6083779;29;20232;-77
2022/10/06 13:05:11;;;;;;;4.28;1.52;;;;;;;30.34;100.00;60274.75;6083787;29;20319;-77
2022/10/06 13:08:26;;;;;;;2.97;1.65;;;;;;;-144.22;100.00;60274.75;6085329;29;20730;-77
2022/10/06 13:11:28;;;;;;;3.05;1.40;;;;;;;-144.22;100.00;60274.75;6088094;29;20236;-77
2022/10/06 13:14:30;;;;;;;3.40;1.27;;;;;;;30.04;100.00;60274.75;6086885;29;20786;-77
2022/10/06 13:17:32;;;;;;;4.85;1.38;;;;;;;-144.22;100.00;60274.75;6086992;29;20224;-77
2022/10/06 13:20:54;;;;;;;2.40;1.45;;;;;;;-144.22;100.00;60274.75;6071802;29;20246;-77
2022/10/06 13:23:56;;;;;;;5.43;1.90;;;;;;;33.34;100.00;60274.75;6083929;29;20244;-77
2022/10/06 13:26:58;;;;;;;4.15;1.42;;;;;;;-144.22;100.00;60274.75;6064179;29;20240;-76
2022/10/06 13:30:21;;;;;;;3.13;1.30;;;;;;;-144.22;100.00;60274.75;6062980;29;20232;-77
2022/10/06 13:33:26;;;;;;;2.63;1.48;;;;;;;-144.22;100.00;60274.75;6074819;29;20232;-77
2022/10/06 13:36:31;;;;;;;3.22;1.40;;;;;;;34.37;100.00;60274.75;6087271;29;20232;-76
2022/10/06 13:39:33;;;;;;;4.00;1.25;;;;;;;-144.22;100.00;60274.75;6087772;29;20243;-77
2022/10/06 13:42:36;;;;;;;6.20;1.55;;;;;;;-144.22;100.00;60274.75;6087745;29;20727;-77
2022/10/06 13:45:41;;;;;;;5.78;1.67;;;;;;;-144.22;100.00;60274.75;6069176;29;20240;-77
2022/10/06 13:48:54;;;;;;;3.85;1.40;;;;;;;-144.22;100.00;60274.75;6055676;29;20604;-77
2022/10/06 13:52:00;;;;;;;5.82;1.70;;;;;;;-144.22;100.00;60274.75;6086153;29;20251;-77
2022/10/06 13:55:12;;;;;;;4.32;1.65;;;;;;;-144.22;100.00;60274.75;6086384;29;20590;-77
2022/10/06 13:58:19;;;;;;;5.35;1.40;;;;;;;-144.22;100.00;60274.75;6086702;29;20236;-77
2022/10/06 14:01:29;;;;;;;3.42;1.30;;;;;;;30.11;100.00;60274.75;6086284;29;20231;-76
2022/10/06 14:04:32;;;;;;;4.25;1.50;;;;;;;32.13;100.00;60274.75;6087635;29;20723;-77
2022/10/06 14:07:42;;;;;;;4.40;1.38;;;;;;;188.01;100.00;60274.75;6085859;29;20323;-77
2022/10/06 14:10:58;;;;;;;5.40;1.42;;;;;;;-144.22;100.00;60274.75;6086815;29;20232;-77
2022/10/06 14:18:34;;;;;;;3.60;1.48;;;;;;;-144.22;100.00;60274.75;6085299;29;20236;-77
2022/10/06 14:21:43;;;;;;;3.55;1.30;;;;;;;-144.22;100.00;60274.75;6086795;29;20336;-78
2022/10/06 14:24:51;;;;;;;2.08;1.30;;;;;;;-144.22;100.00;60274.75;6085354;29;20232;-78
2022/10/06 14:31:21;;;;;;;2.67;1.17;;;;;;;-144.22;100.00;60274.75;6069366;29;20243;-77
2022/10/06 14:34:24;;;;;;;3.60;1.20;;;;;;;-144.22;100.00;60274.75;6084071;29;20278;-77
2022/10/06 14:37:26;;;;;;;1.70;1.40;;;;;;;-144.22;100.00;60274.75;6083462;29;20247;-78
2022/10/06 14:40:28;;;;;;;4.03;1.38;;;;;;;-144.22;100.00;60274.75;6086333;29;20238;-78
2022/10/06 14:43:30;;;;;;;4.05;1.48;;;;;;;-144.22;100.00;60274.75;6061781;29;20571;-78
2022/10/06 14:46:47;;;;;;;3.10;1.27;;;;;;;-144.22;100.00;60274.75;6071947;29;20303;-78